Meridian Naval Air Station
KNMM : now visible

Airfield :











YOU CAN JOIN US ON...

 
LOGIN :

Register | Disclaimer

   EN    FR    IT 

 









Legend :    VFR   Marginal VFR   IFR   Intensive IFR   Very Intensive IFR
Visi :
Ceiling :
>= 8 km
>= 3000ft
5 to 8 km
1000 to 3000 ft
1500m to 5 km
500 to 1000 ft
800 to 1500m
200 to 500 ft
< 800m
< 200 ft
Symbols :   Thunderstorms  Fog  Heavy snow  Heavy precipitations  Wind > 20 kt






- Airport Elevation : 316 ft


KNMM - Meridian Naval Air Station

CURRENT METAR :
  • 171856Z 13012G18KT 10SM FEW040 BKN050 BKN150 28/16 A3007 RMK AO2 SLP190 T02780161 $

EXPIRED METARs :
  • 171756Z 13009G17KT 10SM FEW040 BKN055 BKN150 27/15 A3009 RMK AO2 SLP197 T02720150 10272 20150 58016 $
  • 171656Z 15008G16KT 10SM FEW040 SCT055 BKN160 BKN250 25/15 A3011 RMK AO2 SLP204 T02500150 $

TAF TAF KNMM
Valid from the 17 at 15:00 until the 18 at 15:00 UTC


1715/1815 16010G15KT 9999 FEW120 BKN180 BKN250 QNH3009INS
BECMG 1716/1718 15011G18KT 9999 VCSH FEW025 SCT070 BKN150 QNH3003INS
TEMPO 1721/1803 VRB06KT 8000 SHRA SCT020 BKN050 BKN100
FM180500 VRB06KT VCSH SCT020 BKN055 OVC120 QNH3006INS AUTOMATED SENSOR METWATCH 1805 TIL 1811 T28/1721Z T15/1812Z FN20082
KZME FIR / North America



MET'MAP, your aeronautical weather chart ! - Copyright ORBIFLY December 2007 - Disclaimer

ORBIFLY MET'MAP TEAM :

Programming & Development : Alexandra Zaïnal
Concept & original design : Baudouin d'Aumeries
Assistance for programming : Marc-Olivier Méhu
Technical & hardware support : Manuel Goepfert

Contact : metmap@orbifly.com




SOURCES & CREDITS :

   NOAA       Earth
Advisory